createdAt,value
2023-05-23T00:01:21.260Z,5.93
2023-05-23T00:03:49.294Z,6.37
2023-05-23T00:06:24.343Z,5.73
2023-05-23T00:08:51.120Z,6.27
2023-05-23T00:11:19.358Z,6.87
2023-05-23T00:13:46.503Z,5.90
2023-05-23T00:16:13.172Z,6.37
2023-05-23T00:18:42.997Z,6.80
2023-05-23T00:21:10.077Z,6.57
2023-05-23T00:23:36.785Z,6.40
2023-05-23T00:26:03.740Z,6.43
2023-05-23T00:28:30.417Z,6.93
2023-05-23T00:30:57.109Z,6.47
2023-05-23T00:33:23.939Z,7.47
2023-05-23T00:35:50.649Z,6.13
2023-05-23T00:38:18.026Z,5.70
2023-05-23T00:40:44.702Z,5.83
2023-05-23T00:43:12.295Z,6.00
2023-05-23T00:45:39.044Z,5.73
2023-05-23T00:48:06.405Z,5.47
2023-05-23T00:50:33.804Z,5.67
2023-05-23T00:53:01.518Z,5.17
2023-05-23T00:55:28.889Z,5.93
2023-05-23T00:57:57.046Z,5.60
2023-05-23T01:00:25.174Z,5.77
2023-05-23T01:02:53.363Z,5.33
2023-05-23T01:05:22.488Z,5.80
2023-05-23T01:07:50.945Z,5.80
2023-05-23T01:10:20.558Z,5.80
2023-05-23T01:13:29.268Z,5.50
2023-05-23T01:16:04.608Z,5.67
2023-05-23T01:18:43.724Z,4.50
2023-05-23T01:21:17.180Z,5.43
2023-05-23T01:24:02.709Z,5.27
2023-05-23T01:26:36.876Z,5.53
2023-05-23T01:29:14.492Z,7.03
2023-05-23T01:31:47.380Z,7.63
2023-05-23T01:34:14.860Z,7.00
2023-05-23T01:36:43.481Z,7.77
2023-05-23T01:39:11.217Z,8.23
2023-05-23T01:41:38.088Z,7.80
2023-05-23T01:44:05.640Z,8.77
2023-05-23T01:46:34.043Z,9.63
2023-05-23T01:49:02.823Z,9.10
2023-05-23T01:51:30.624Z,9.50
2023-05-23T01:53:57.854Z,10.07
2023-05-23T01:56:24.917Z,10.60
2023-05-23T01:58:51.739Z,12.53
2023-05-23T02:01:18.663Z,10.30
2023-05-23T02:03:45.610Z,12.70
2023-05-23T02:06:12.328Z,13.23
2023-05-23T02:08:39.082Z,13.20
2023-05-23T02:11:05.818Z,13.00
2023-05-23T02:13:32.428Z,14.53
2023-05-23T02:15:59.105Z,12.47
2023-05-23T02:18:29.834Z,12.93
2023-05-23T02:20:56.573Z,11.70
2023-05-23T02:23:23.230Z,12.53
2023-05-23T02:25:49.992Z,13.60
2023-05-23T02:28:16.646Z,12.83
2023-05-23T02:30:43.299Z,12.90
2023-05-23T02:33:10.745Z,11.73
2023-05-23T02:35:37.423Z,10.93
2023-05-23T02:38:04.067Z,12.30
2023-05-23T02:40:30.666Z,11.30
2023-05-23T02:42:57.392Z,12.70
2023-05-23T02:45:24.616Z,12.13
2023-05-23T02:47:51.271Z,12.37
2023-05-23T02:50:17.947Z,11.43
2023-05-23T02:52:44.906Z,10.07
2023-05-23T02:55:11.547Z,11.20
2023-05-23T02:57:38.145Z,10.17
2023-05-23T03:00:05.209Z,10.73
2023-05-23T03:02:31.891Z,9.73
2023-05-23T03:04:58.576Z,9.53
2023-05-23T03:07:28.447Z,9.43
2023-05-23T03:09:56.017Z,9.43
2023-05-23T03:12:22.651Z,9.23
2023-05-23T03:14:49.258Z,9.23
2023-05-23T03:17:16.169Z,8.53
2023-05-23T03:19:42.843Z,9.03
2023-05-23T03:22:09.442Z,9.17
2023-05-23T03:24:36.056Z,10.37
2023-05-23T03:27:03.034Z,8.83
2023-05-23T03:29:29.669Z,10.20
2023-05-23T03:31:56.493Z,10.70
2023-05-23T03:34:23.819Z,9.13
2023-05-23T03:36:50.904Z,9.47
2023-05-23T03:39:17.598Z,10.17
2023-05-23T03:41:44.368Z,9.07
2023-05-23T03:44:11.132Z,9.83
2023-05-23T03:46:39.644Z,8.73
2023-05-23T03:49:06.720Z,8.47
2023-05-23T03:51:34.227Z,7.27
2023-05-23T03:54:00.813Z,8.60
2023-05-23T03:56:27.421Z,8.17
2023-05-23T03:58:54.008Z,7.53
2023-05-23T04:01:20.788Z,7.57
2023-05-23T04:03:49.709Z,8.73
2023-05-23T04:06:17.127Z,7.10
2023-05-23T04:08:43.729Z,8.27
2023-05-23T04:11:10.337Z,7.87
2023-05-23T04:13:37.074Z,7.07
2023-05-23T04:16:05.656Z,7.83
2023-05-23T04:18:39.245Z,7.43
2023-05-23T04:21:06.364Z,7.83
2023-05-23T04:23:33.089Z,7.27
2023-05-23T04:26:00.095Z,6.67
2023-05-23T04:28:27.745Z,6.40
2023-05-23T04:30:54.591Z,6.43
2023-05-23T04:33:21.608Z,5.17
2023-05-23T04:35:49.277Z,4.93
2023-05-23T04:38:15.887Z,4.83
2023-05-23T04:40:42.830Z,5.47
2023-05-23T04:43:10.094Z,4.57
2023-05-23T04:45:36.684Z,4.57
2023-05-23T04:48:03.932Z,5.07
2023-05-23T04:50:33.099Z,4.70
2023-05-23T04:52:59.784Z,5.47
2023-05-23T04:55:26.567Z,5.17
2023-05-23T04:57:53.319Z,5.03
2023-05-23T05:00:20.356Z,6.10
2023-05-23T05:02:46.994Z,5.80
2023-05-23T05:05:13.782Z,6.23
2023-05-23T05:07:40.781Z,5.90
2023-05-23T05:10:07.873Z,5.87
2023-05-23T05:12:34.560Z,5.83
2023-05-23T05:15:02.567Z,6.37
2023-05-23T05:17:30.030Z,5.67
2023-05-23T05:19:56.959Z,6.00
2023-05-23T05:22:23.851Z,6.30
2023-05-23T05:24:50.518Z,5.83
2023-05-23T05:27:17.170Z,5.33
2023-05-23T05:29:43.961Z,5.23
2023-05-23T05:32:10.783Z,5.53
2023-05-23T05:34:37.816Z,5.10
2023-05-23T05:37:04.870Z,5.33
2023-05-23T05:39:31.466Z,5.40
2023-05-23T05:41:59.255Z,4.37
2023-05-23T05:44:26.925Z,5.10
2023-05-23T05:46:53.529Z,4.97
2023-05-23T05:49:20.149Z,4.40
2023-05-23T05:51:47.268Z,4.17
2023-05-23T05:54:14.225Z,3.90
2023-05-23T05:56:42.194Z,3.80
2023-05-23T05:59:08.858Z,3.50
2023-05-23T06:01:35.782Z,3.40
2023-05-23T06:04:02.828Z,3.50
2023-05-23T06:06:29.566Z,3.57
2023-05-23T06:08:56.251Z,3.33
2023-05-23T06:11:22.855Z,2.80
2023-05-23T06:13:49.449Z,3.37
2023-05-23T06:16:16.580Z,2.80
2023-05-23T06:18:43.236Z,2.70
2023-05-23T06:21:10.630Z,3.10
2023-05-23T06:23:37.262Z,3.20
2023-05-23T06:26:07.897Z,3.07
2023-05-23T06:28:34.756Z,3.33
2023-05-23T06:31:01.438Z,2.73
2023-05-23T06:33:28.362Z,2.30
2023-05-23T06:35:55.055Z,2.07
2023-05-23T06:38:22.174Z,2.03
2023-05-23T06:40:48.763Z,2.00
2023-05-23T06:43:15.399Z,1.53
2023-05-23T06:45:42.020Z,1.67
2023-05-23T06:48:08.642Z,2.20
2023-05-23T06:50:35.774Z,1.47
2023-05-23T06:53:02.450Z,1.23
2023-05-23T06:55:29.059Z,1.63
2023-05-23T06:57:55.940Z,1.23
2023-05-23T07:00:22.578Z,1.30
2023-05-23T07:02:49.238Z,1.63
2023-05-23T07:05:16.336Z,2.00
2023-05-23T07:07:43.658Z,2.30
2023-05-23T07:10:10.896Z,2.50
2023-05-23T07:12:37.582Z,3.10
2023-05-23T07:15:04.505Z,2.87
2023-05-23T07:17:31.665Z,2.43
2023-05-23T07:19:58.285Z,2.90
2023-05-23T07:22:25.034Z,2.70
2023-05-23T07:24:51.636Z,2.90
2023-05-23T07:27:18.488Z,3.40
2023-05-23T07:29:45.120Z,3.40
2023-05-23T07:32:11.719Z,2.63
2023-05-23T07:34:38.367Z,2.50
2023-05-23T07:37:05.078Z,2.50
2023-05-23T07:39:31.700Z,2.80
2023-05-23T07:41:58.376Z,2.47
2023-05-23T07:44:25.456Z,2.33
2023-05-23T07:46:52.395Z,2.80
2023-05-23T07:49:19.386Z,2.47
2023-05-23T07:51:46.017Z,2.30
2023-05-23T07:54:15.084Z,2.23
2023-05-23T07:56:43.449Z,2.37
2023-05-23T07:59:10.141Z,2.50
2023-05-23T08:01:37.357Z,2.87
2023-05-23T08:04:04.227Z,2.40
2023-05-23T08:06:31.844Z,2.20
2023-05-23T08:08:58.499Z,2.47
2023-05-23T08:11:25.264Z,2.27
2023-05-23T08:13:52.036Z,2.13
2023-05-23T08:16:18.813Z,2.30
2023-05-23T08:18:45.932Z,2.43
2023-05-23T08:21:12.575Z,1.97
2023-05-23T08:23:39.174Z,2.47
2023-05-23T08:26:06.054Z,2.90
2023-05-23T08:28:34.605Z,2.43
2023-05-23T08:31:01.200Z,2.60
2023-05-23T08:33:27.818Z,2.33
2023-05-23T08:35:54.473Z,2.80
2023-05-23T08:38:22.006Z,2.80
2023-05-23T08:40:53.482Z,2.17
2023-05-23T08:43:20.424Z,2.17
2023-05-23T08:45:49.028Z,2.57
2023-05-23T08:48:19.170Z,2.00
2023-05-23T08:50:47.726Z,1.90
2023-05-23T08:53:20.866Z,1.83
2023-05-23T08:55:48.769Z,2.20
2023-05-23T08:58:16.033Z,2.43
2023-05-23T09:00:43.799Z,2.20
2023-05-23T09:03:12.275Z,2.10
2023-05-23T09:05:39.031Z,1.93
2023-05-23T09:08:05.876Z,1.80
2023-05-23T09:10:32.584Z,1.90
2023-05-23T09:12:59.295Z,1.93
2023-05-23T09:15:27.195Z,1.60
2023-05-23T09:17:53.844Z,1.70
2023-05-23T09:20:21.808Z,1.70
2023-05-23T09:22:49.116Z,1.83
2023-05-23T09:25:16.020Z,1.90
2023-05-23T09:27:45.755Z,1.67
2023-05-23T09:30:15.132Z,1.80
2023-05-23T09:32:42.241Z,1.50
2023-05-23T09:35:13.668Z,1.50
2023-05-23T09:37:46.175Z,1.67
2023-05-23T09:40:14.679Z,1.70
2023-05-23T09:42:48.664Z,1.60
2023-05-23T09:45:17.111Z,1.83
2023-05-23T09:47:54.322Z,2.00
2023-05-23T09:50:22.203Z,2.33
2023-05-23T09:52:49.107Z,1.90
2023-05-23T09:55:15.902Z,1.90
2023-05-23T09:57:44.068Z,2.70
2023-05-23T10:00:12.302Z,2.47
2023-05-23T10:02:45.220Z,1.73
2023-05-23T10:05:22.250Z,1.70
2023-05-23T10:07:48.968Z,1.70
2023-05-23T10:10:15.897Z,2.50
2023-05-23T10:12:52.132Z,1.90
2023-05-23T10:15:19.936Z,2.00
2023-05-23T10:18:12.538Z,2.10
2023-05-23T10:20:41.946Z,1.87
2023-05-23T10:23:08.951Z,2.07
2023-05-23T10:25:37.032Z,1.90
2023-05-23T10:28:04.897Z,2.17
2023-05-23T10:30:31.899Z,2.30
2023-05-23T10:33:00.090Z,2.20
2023-05-23T10:35:40.780Z,2.43
2023-05-23T10:38:10.143Z,2.03
2023-05-23T10:40:55.405Z,1.83
2023-05-23T10:43:24.804Z,2.10
2023-05-23T10:45:52.011Z,2.17
2023-05-23T10:48:35.717Z,2.50
2023-05-23T10:51:09.693Z,2.13
2023-05-23T10:53:41.954Z,2.60
2023-05-23T10:56:11.135Z,2.07
2023-05-23T10:58:39.535Z,1.97
2023-05-23T11:01:16.354Z,2.37
2023-05-23T11:03:45.820Z,2.67
2023-05-23T11:06:33.825Z,2.20
2023-05-23T11:09:13.579Z,1.60
2023-05-23T11:11:59.217Z,2.03
2023-05-23T11:14:38.213Z,2.03
2023-05-23T11:17:19.812Z,2.05
2023-05-23T11:19:58.852Z,1.83
2023-05-23T11:22:30.501Z,2.00
2023-05-23T11:24:58.783Z,2.15
2023-05-23T11:27:37.832Z,1.77
2023-05-23T11:30:10.201Z,2.20
2023-05-23T11:32:37.434Z,2.30
2023-05-23T11:35:06.540Z,2.27
2023-05-23T11:37:33.697Z,2.20
2023-05-23T11:40:20.596Z,2.07
2023-05-23T11:42:47.356Z,2.37
2023-05-23T11:45:13.991Z,2.43
2023-05-23T11:47:41.775Z,2.20
2023-05-23T11:50:08.965Z,2.20
2023-05-23T11:52:35.571Z,1.90
2023-05-23T11:55:03.816Z,1.77
2023-05-23T11:57:30.809Z,2.50
2023-05-23T11:59:57.475Z,2.10
2023-05-23T12:02:28.261Z,1.80
2023-05-23T12:04:54.920Z,2.33
2023-05-23T12:07:21.722Z,2.30
2023-05-23T12:09:48.637Z,2.67
2023-05-23T12:12:16.314Z,2.80
2023-05-23T12:14:46.163Z,2.50
2023-05-23T12:17:13.722Z,2.20
2023-05-23T12:19:45.508Z,1.90
2023-05-23T12:22:12.195Z,1.97
2023-05-23T12:24:46.793Z,1.67
2023-05-23T12:27:13.464Z,1.80
2023-05-23T12:29:40.063Z,1.77
2023-05-23T12:32:07.491Z,1.77
2023-05-23T12:34:34.179Z,1.83
2023-05-23T12:37:18.115Z,2.10
2023-05-23T12:39:46.207Z,1.60
2023-05-23T12:42:12.980Z,1.63
2023-05-23T12:44:43.492Z,2.13
2023-05-23T12:47:13.303Z,1.67
2023-05-23T12:49:40.005Z,1.83
2023-05-23T12:52:07.895Z,1.90
2023-05-23T12:54:34.524Z,1.70
2023-05-23T12:57:01.833Z,1.97
2023-05-23T12:59:31.374Z,1.90
2023-05-23T13:01:58.306Z,2.10
2023-05-23T13:04:25.502Z,2.00
2023-05-23T13:06:52.808Z,2.00
2023-05-23T13:09:19.557Z,2.33
2023-05-23T13:11:46.624Z,1.90
2023-05-23T13:14:13.975Z,1.97
2023-05-23T13:16:40.735Z,1.87
2023-05-23T13:19:07.717Z,1.30
2023-05-23T13:21:34.374Z,1.60
2023-05-23T13:24:01.334Z,1.93
2023-05-23T13:26:27.995Z,2.17
2023-05-23T13:28:54.606Z,1.77
2023-05-23T13:31:21.708Z,1.80
2023-05-23T13:33:48.344Z,1.87
2023-05-23T13:36:15.040Z,1.60
2023-05-23T13:38:41.726Z,2.40
2023-05-23T13:41:08.842Z,1.40
2023-05-23T13:43:35.711Z,1.77
2023-05-23T13:46:03.020Z,1.63
2023-05-23T13:48:29.730Z,1.67
2023-05-23T13:50:56.607Z,1.60
2023-05-23T13:53:23.349Z,1.63
2023-05-23T13:55:50.228Z,1.53
2023-05-23T13:58:16.902Z,1.70
2023-05-23T14:00:44.129Z,1.90
2023-05-23T14:03:11.128Z,1.77
2023-05-23T14:05:37.915Z,1.87
2023-05-23T14:08:04.981Z,2.10
2023-05-23T14:10:33.254Z,1.50
2023-05-23T14:12:59.960Z,1.70
2023-05-23T14:15:27.026Z,1.83
2023-05-23T14:17:56.139Z,2.07
2023-05-23T14:20:23.449Z,1.70
2023-05-23T14:22:51.148Z,1.40
2023-05-23T14:25:18.403Z,1.77
2023-05-23T14:27:45.324Z,2.17
2023-05-23T14:30:14.966Z,1.47
2023-05-23T14:32:41.875Z,1.30
2023-05-23T14:35:11.001Z,1.40
2023-05-23T14:37:38.066Z,1.30
2023-05-23T14:40:06.749Z,1.50
2023-05-23T14:42:33.634Z,1.60
2023-05-23T14:45:00.314Z,1.50
2023-05-23T14:47:27.151Z,1.70
2023-05-23T14:49:53.781Z,1.47
2023-05-23T14:52:20.488Z,1.60
2023-05-23T14:54:47.172Z,1.40
2023-05-23T14:57:13.857Z,1.30
2023-05-23T14:59:40.444Z,1.50
2023-05-23T15:02:08.123Z,1.17
2023-05-23T15:04:35.891Z,1.80
2023-05-23T15:07:02.670Z,1.57
2023-05-23T15:09:29.258Z,1.87
2023-05-23T15:11:56.219Z,1.67
2023-05-23T15:14:23.223Z,1.50
2023-05-23T15:16:50.578Z,1.87
2023-05-23T15:19:17.340Z,1.53
2023-05-23T15:21:50.377Z,1.70
2023-05-23T15:24:18.342Z,1.63
2023-05-23T15:26:44.975Z,1.50
2023-05-23T15:29:12.534Z,1.60
2023-05-23T15:31:39.152Z,1.17
2023-05-23T15:34:05.830Z,1.40
2023-05-23T15:36:32.458Z,1.57
2023-05-23T15:38:59.522Z,1.40
2023-05-23T15:41:26.508Z,1.40
2023-05-23T15:43:53.361Z,1.90
2023-05-23T15:46:20.138Z,1.70
2023-05-23T15:48:46.806Z,1.80
2023-05-23T15:51:13.468Z,1.80
2023-05-23T15:53:58.734Z,1.73
2023-05-23T15:56:27.853Z,1.70
2023-05-23T15:58:55.039Z,1.40
2023-05-23T16:01:21.778Z,1.33
2023-05-23T16:03:49.828Z,1.27
2023-05-23T16:06:16.840Z,1.37
2023-05-23T16:08:43.528Z,1.60
2023-05-23T16:11:10.167Z,1.27
2023-05-23T16:13:36.879Z,1.30
2023-05-23T16:16:04.512Z,1.30
2023-05-23T16:18:31.379Z,1.63
2023-05-23T16:20:58.127Z,1.47
2023-05-23T16:23:24.831Z,1.27
2023-05-23T16:25:51.539Z,1.33
2023-05-23T16:28:18.678Z,1.33
2023-05-23T16:30:45.518Z,1.23
2023-05-23T16:33:12.263Z,1.40
2023-05-23T16:35:39.706Z,1.83
2023-05-23T16:38:06.565Z,1.30
2023-05-23T16:40:33.221Z,1.50
2023-05-23T16:42:59.883Z,1.17
2023-05-23T16:45:26.485Z,2.03
2023-05-23T16:47:53.372Z,1.60
2023-05-23T16:50:20.020Z,1.33
2023-05-23T16:52:46.684Z,1.87
2023-05-23T16:55:13.496Z,1.00
2023-05-23T16:57:40.262Z,1.23
2023-05-23T17:00:07.775Z,1.43
2023-05-23T17:02:34.630Z,1.13
2023-05-23T17:05:01.426Z,1.40
2023-05-23T17:07:28.031Z,1.30
2023-05-23T17:09:54.658Z,1.83
2023-05-23T17:12:21.678Z,1.60
2023-05-23T17:14:48.942Z,1.87
2023-05-23T17:17:15.658Z,1.50
2023-05-23T17:19:42.525Z,1.60
2023-05-23T17:22:09.287Z,1.07
2023-05-23T17:24:36.806Z,1.60
2023-05-23T17:27:04.030Z,1.50
2023-05-23T17:29:31.301Z,1.20
2023-05-23T17:31:57.986Z,1.33
2023-05-23T17:34:24.719Z,1.33
2023-05-23T17:36:52.656Z,0.97
2023-05-23T17:39:19.692Z,1.60
2023-05-23T17:41:46.626Z,1.10
2023-05-23T17:44:13.261Z,1.07
2023-05-23T17:46:40.175Z,1.20
2023-05-23T17:49:07.136Z,1.17
2023-05-23T17:51:33.737Z,1.13
2023-05-23T17:54:00.700Z,1.30
2023-05-23T17:56:27.333Z,1.93
2023-05-23T17:58:53.982Z,1.67
2023-05-23T18:01:20.786Z,1.53
2023-05-23T18:03:49.037Z,1.40
2023-05-23T18:06:15.910Z,1.30
2023-05-23T18:08:42.529Z,1.60
2023-05-23T18:11:09.516Z,1.53
2023-05-23T18:13:36.208Z,1.50
2023-05-23T18:16:02.832Z,1.30
2023-05-23T18:18:29.548Z,1.57
2023-05-23T18:20:56.360Z,1.30
2023-05-23T18:23:23.168Z,1.50
2023-05-23T18:25:50.012Z,1.70
2023-05-23T18:28:16.705Z,1.53
2023-05-23T18:30:43.621Z,1.20
2023-05-23T18:33:10.660Z,1.40
2023-05-23T18:35:37.574Z,1.77
2023-05-23T18:38:04.272Z,1.40
2023-05-23T18:40:31.253Z,1.30
2023-05-23T18:42:57.904Z,1.50
2023-05-23T18:45:24.561Z,1.37
2023-05-23T18:47:51.323Z,1.37
2023-05-23T18:50:18.569Z,1.87
2023-05-23T18:52:45.408Z,1.07
2023-05-23T18:55:12.696Z,1.60
2023-05-23T18:57:39.312Z,1.47
2023-05-23T19:00:07.322Z,1.53
2023-05-23T19:02:34.134Z,1.20
2023-05-23T19:05:02.088Z,1.63
2023-05-23T19:07:28.748Z,1.20
2023-05-23T19:09:55.520Z,1.07
2023-05-23T19:12:22.471Z,1.17
2023-05-23T19:14:49.094Z,1.20
2023-05-23T19:17:16.514Z,1.80
2023-05-23T19:19:43.239Z,1.53
2023-05-23T19:22:10.006Z,1.10
2023-05-23T19:24:37.212Z,1.20
2023-05-23T19:27:04.731Z,1.23
2023-05-23T19:29:31.483Z,1.30
2023-05-23T19:31:58.555Z,1.40
2023-05-23T19:34:25.288Z,1.10
2023-05-23T19:36:51.944Z,1.40
2023-05-23T19:39:19.056Z,1.57
2023-05-23T19:41:45.752Z,1.60
2023-05-23T19:44:13.145Z,1.30
2023-05-23T19:46:40.075Z,1.50
2023-05-23T19:49:08.023Z,1.70
2023-05-23T19:51:34.867Z,1.37
2023-05-23T19:54:01.680Z,0.90
2023-05-23T19:56:28.732Z,1.53
2023-05-23T19:58:55.669Z,1.23
2023-05-23T20:01:22.376Z,2.00
2023-05-23T20:03:49.526Z,1.53
2023-05-23T20:06:16.862Z,1.23
2023-05-23T20:08:43.538Z,1.40
2023-05-23T20:11:10.627Z,2.03
2023-05-23T20:13:38.595Z,1.10
2023-05-23T20:16:07.695Z,1.20
2023-05-23T20:18:34.399Z,1.10
2023-05-23T20:21:03.523Z,2.00
2023-05-23T20:23:31.572Z,1.50
2023-05-23T20:25:58.163Z,1.67
2023-05-23T20:28:25.131Z,1.17
2023-05-23T20:30:51.921Z,1.53
2023-05-23T20:33:19.266Z,1.67
2023-05-23T20:35:48.264Z,1.67
2023-05-23T20:38:18.290Z,1.57
2023-05-23T20:40:45.281Z,1.23
2023-05-23T20:43:12.159Z,1.70
2023-05-23T20:45:38.823Z,1.70
2023-05-23T20:48:05.951Z,1.50
2023-05-23T20:50:33.723Z,1.83
2023-05-23T20:53:02.456Z,2.20
2023-05-23T20:55:29.446Z,1.70
2023-05-23T20:57:56.077Z,1.57
2023-05-23T21:00:22.735Z,1.70
2023-05-23T21:02:49.508Z,1.33
2023-05-23T21:05:16.371Z,1.30
2023-05-23T21:07:43.039Z,1.77
2023-05-23T21:10:09.891Z,1.87
2023-05-23T21:12:36.599Z,1.83
2023-05-23T21:15:03.522Z,2.53
2023-05-23T21:17:30.224Z,1.63
2023-05-23T21:19:56.905Z,1.70
2023-05-23T21:22:23.610Z,1.77
2023-05-23T21:24:50.465Z,1.63
2023-05-23T21:27:17.212Z,1.97
2023-05-23T21:29:43.882Z,1.67
2023-05-23T21:32:10.723Z,1.77
2023-05-23T21:34:37.338Z,2.10
2023-05-23T21:37:04.141Z,2.17
2023-05-23T21:39:39.614Z,1.70
2023-05-23T21:42:14.132Z,2.17
2023-05-23T21:44:41.214Z,1.87
2023-05-23T21:47:08.074Z,1.93
2023-05-23T21:49:35.404Z,2.20
2023-05-23T21:52:02.450Z,1.87
2023-05-23T21:54:29.077Z,2.53
2023-05-23T21:56:55.778Z,2.10
2023-05-23T21:59:22.937Z,2.27
2023-05-23T22:01:49.688Z,2.40
2023-05-23T22:04:19.856Z,2.40
2023-05-23T22:06:47.010Z,1.73
2023-05-23T22:09:15.091Z,2.00
2023-05-23T22:11:43.007Z,1.57
2023-05-23T22:14:10.146Z,1.90
2023-05-23T22:16:39.817Z,2.07
2023-05-23T22:19:08.840Z,2.27
2023-05-23T22:21:36.709Z,1.53
2023-05-23T22:24:03.633Z,1.87
2023-05-23T22:26:30.444Z,1.47
2023-05-23T22:28:57.169Z,1.83
2023-05-23T22:31:24.159Z,2.67
2023-05-23T22:33:51.293Z,1.97
2023-05-23T22:36:18.146Z,2.17
2023-05-23T22:38:45.017Z,2.07
2023-05-23T22:41:11.703Z,1.60
2023-05-23T22:43:38.617Z,2.17
2023-05-23T22:46:05.538Z,2.07
2023-05-23T22:48:33.741Z,1.80
2023-05-23T22:51:01.968Z,1.97
2023-05-23T22:53:29.266Z,2.27
2023-05-23T22:55:56.063Z,2.00
2023-05-23T22:58:22.776Z,2.57
2023-05-23T23:00:49.481Z,2.27
2023-05-23T23:03:16.358Z,2.57
2023-05-23T23:05:44.213Z,2.00
2023-05-23T23:08:10.939Z,2.93
2023-05-23T23:10:38.072Z,1.87
2023-05-23T23:13:04.674Z,1.80
2023-05-23T23:15:33.695Z,2.03
2023-05-23T23:18:01.081Z,2.10
2023-05-23T23:20:28.042Z,1.80
2023-05-23T23:22:54.704Z,1.93
2023-05-23T23:25:21.900Z,2.30
2023-05-23T23:27:48.535Z,2.30
2023-05-23T23:30:15.518Z,2.00
2023-05-23T23:32:42.223Z,2.80
2023-05-23T23:35:09.087Z,2.10
2023-05-23T23:37:35.821Z,2.13
2023-05-23T23:40:02.471Z,2.50
2023-05-23T23:42:29.100Z,2.03
2023-05-23T23:44:56.139Z,2.73
2023-05-23T23:47:22.779Z,2.17
2023-05-23T23:49:49.436Z,2.53
2023-05-23T23:52:16.147Z,2.40
2023-05-23T23:54:42.878Z,2.30
2023-05-23T23:57:13.880Z,2.13
2023-05-23T23:59:44.035Z,2.43
